createdAt,value
2023-05-08T00:01:01.144Z,11.79
2023-05-08T00:04:03.517Z,11.68
2023-05-08T00:07:05.541Z,11.66
2023-05-08T00:10:08.779Z,11.66
2023-05-08T00:13:10.872Z,11.66
2023-05-08T00:16:13.293Z,11.59
2023-05-08T00:19:15.285Z,11.54
2023-05-08T00:22:17.620Z,11.36
2023-05-08T00:25:19.570Z,11.38
2023-05-08T00:28:21.524Z,11.32
2023-05-08T00:31:24.261Z,11.35
2023-05-08T00:34:26.362Z,11.32
2023-05-08T00:37:28.246Z,11.31
2023-05-08T00:40:30.266Z,11.32
2023-05-08T00:43:32.357Z,11.32
2023-05-08T00:46:35.538Z,11.27
2023-05-08T00:49:38.467Z,11.24
2023-05-08T00:52:40.764Z,11.09
2023-05-08T00:55:43.633Z,11.06
2023-05-08T00:58:45.837Z,10.99
2023-05-08T01:01:50.111Z,11.00
2023-05-08T01:04:54.809Z,10.97
2023-05-08T01:07:56.873Z,10.95
2023-05-08T01:11:14.217Z,10.98
2023-05-08T01:14:34.418Z,10.90
2023-05-08T01:17:56.582Z,10.89
2023-05-08T01:21:17.236Z,10.85
2023-05-08T01:24:33.733Z,10.82
2023-05-08T01:27:53.994Z,10.71
2023-05-08T01:31:08.266Z,10.64
2023-05-08T01:34:15.327Z,10.53
2023-05-08T01:37:25.345Z,10.53
2023-05-08T01:40:27.404Z,10.43
2023-05-08T01:43:35.704Z,10.41
2023-05-08T01:46:37.800Z,10.38
2023-05-08T01:49:46.486Z,10.40
2023-05-08T01:52:58.278Z,10.28
2023-05-08T01:56:04.008Z,10.27
2023-05-08T01:59:08.291Z,10.23
2023-05-08T02:02:11.873Z,10.11
2023-05-08T02:05:15.180Z,10.10
2023-05-08T02:08:19.726Z,9.98
2023-05-08T02:11:24.809Z,10.02
2023-05-08T02:14:28.250Z,9.99
2023-05-08T02:17:31.980Z,9.87
2023-05-08T02:20:34.233Z,9.85
2023-05-08T02:23:37.265Z,9.82
2023-05-08T02:26:41.495Z,9.75
2023-05-08T02:29:43.978Z,9.67
2023-05-08T02:32:48.180Z,9.63
2023-05-08T02:35:51.672Z,9.62
2023-05-08T02:38:56.234Z,9.61
2023-05-08T02:41:59.650Z,9.55
2023-05-08T02:45:02.888Z,9.50
2023-05-08T02:48:22.933Z,9.51
2023-05-08T02:51:47.086Z,9.60
2023-05-08T02:55:00.206Z,9.63
2023-05-08T02:58:19.059Z,9.64
2023-05-08T03:01:38.215Z,9.58
2023-05-08T03:04:49.932Z,9.48
2023-05-08T03:07:56.074Z,9.43
2023-05-08T03:11:02.912Z,9.39
2023-05-08T03:14:10.131Z,9.34
2023-05-08T03:17:16.680Z,9.36
2023-05-08T03:20:21.089Z,9.40
2023-05-08T03:23:24.928Z,9.32
2023-05-08T03:26:27.484Z,9.38
2023-05-08T03:29:30.900Z,9.35
2023-05-08T03:32:35.057Z,9.36
2023-05-08T03:35:38.456Z,9.29
2023-05-08T03:38:40.879Z,9.21
2023-05-08T03:41:43.283Z,9.12
2023-05-08T03:44:45.706Z,9.16
2023-05-08T03:47:49.444Z,9.03
2023-05-08T03:50:52.200Z,8.97
2023-05-08T03:53:54.645Z,8.90
2023-05-08T03:56:56.969Z,8.88
2023-05-08T04:00:29.236Z,8.92
2023-05-08T04:04:06.224Z,8.91
2023-05-08T04:07:32.671Z,8.88
2023-05-08T04:10:44.545Z,8.99
2023-05-08T04:13:50.871Z,9.06
2023-05-08T04:17:00.393Z,9.04
2023-05-08T04:20:04.787Z,9.12
2023-05-08T04:23:07.981Z,9.06
2023-05-08T04:26:11.808Z,9.08
2023-05-08T04:29:14.146Z,9.16
2023-05-08T04:32:17.472Z,9.09
2023-05-08T04:35:20.021Z,9.21
2023-05-08T04:38:21.985Z,9.22
2023-05-08T04:41:23.981Z,9.16
2023-05-08T04:44:25.967Z,9.27
2023-05-08T04:47:27.974Z,9.36
2023-05-08T04:50:29.984Z,9.37
2023-05-08T04:53:32.551Z,9.38
2023-05-08T04:56:34.604Z,9.44
2023-05-08T04:59:36.617Z,9.54
2023-05-08T05:02:38.678Z,9.55
2023-05-08T05:05:41.076Z,9.45
2023-05-08T05:08:43.036Z,9.62
2023-05-08T05:11:45.322Z,9.71
2023-05-08T05:14:47.307Z,9.80
2023-05-08T05:17:49.478Z,9.89
2023-05-08T05:20:51.507Z,10.12
2023-05-08T05:23:53.686Z,10.13
2023-05-08T05:26:55.634Z,10.30
2023-05-08T05:29:59.833Z,10.30
2023-05-08T05:33:03.164Z,10.23
2023-05-08T05:36:05.510Z,9.90
2023-05-08T05:39:07.464Z,9.82
2023-05-08T05:42:09.657Z,9.71
2023-05-08T05:45:12.568Z,9.93
2023-05-08T05:48:14.594Z,10.09
2023-05-08T05:51:16.552Z,10.18
2023-05-08T05:54:18.974Z,10.27
2023-05-08T05:57:21.113Z,10.32
2023-05-08T06:00:23.219Z,10.12
2023-05-08T06:03:25.404Z,10.09
2023-05-08T06:06:27.801Z,9.88
2023-05-08T06:09:30.170Z,9.97
2023-05-08T06:12:32.648Z,10.19
2023-05-08T06:15:34.980Z,10.39
2023-05-08T06:18:36.942Z,10.65
2023-05-08T06:21:39.948Z,10.70
2023-05-08T06:24:41.962Z,10.18
2023-05-08T06:27:43.970Z,10.20
2023-05-08T06:30:46.058Z,10.25
2023-05-08T06:33:48.187Z,10.28
2023-05-08T06:36:50.108Z,10.39
2023-05-08T06:40:03.844Z,10.46
2023-05-08T06:43:13.868Z,10.37
2023-05-08T06:46:16.242Z,10.65
2023-05-08T06:49:18.265Z,10.83
2023-05-08T06:52:21.163Z,10.96
2023-05-08T06:55:23.155Z,10.98
2023-05-08T06:58:25.557Z,11.11
2023-05-08T07:01:27.987Z,11.10
2023-05-08T07:04:32.120Z,11.29
2023-05-08T07:07:34.172Z,11.07
2023-05-08T07:10:36.913Z,11.16
2023-05-08T07:13:39.166Z,11.39
2023-05-08T07:16:41.147Z,11.17
2023-05-08T07:19:43.138Z,10.97
2023-05-08T07:22:45.309Z,11.51
2023-05-08T07:25:47.406Z,11.56
2023-05-08T07:28:50.892Z,11.79
2023-05-08T07:31:53.032Z,12.25
2023-05-08T07:34:55.074Z,12.01
2023-05-08T07:37:57.199Z,12.65
2023-05-08T07:41:01.638Z,12.25
2023-05-08T07:44:03.774Z,12.34
2023-05-08T07:47:05.937Z,12.63
2023-05-08T07:50:08.230Z,12.86
2023-05-08T07:53:10.699Z,13.02
2023-05-08T07:56:12.695Z,13.12
2023-05-08T07:59:14.686Z,13.28
2023-05-08T08:02:16.696Z,13.30
2023-05-08T08:05:19.237Z,12.59
2023-05-08T08:08:21.756Z,12.70
2023-05-08T08:11:23.859Z,12.72
2023-05-08T08:14:26.644Z,13.13
2023-05-08T08:17:29.076Z,13.14
2023-05-08T08:20:31.321Z,13.14
2023-05-08T08:23:34.122Z,13.16
2023-05-08T08:26:36.226Z,13.09
2023-05-08T08:29:38.133Z,13.15
2023-05-08T08:32:41.565Z,13.30
2023-05-08T08:35:43.565Z,13.25
2023-05-08T08:38:45.857Z,13.42
2023-05-08T08:41:48.345Z,13.52
2023-05-08T08:44:50.348Z,13.81
2023-05-08T08:47:53.143Z,14.32
2023-05-08T08:51:02.569Z,15.15
2023-05-08T08:54:09.129Z,16.28
2023-05-08T08:57:13.068Z,17.71
2023-05-08T09:00:15.774Z,18.09
2023-05-08T09:03:17.900Z,19.33
2023-05-08T09:06:19.981Z,20.18
2023-05-08T09:09:22.707Z,20.48
2023-05-08T09:12:24.757Z,20.89
2023-05-08T09:15:26.802Z,20.41
2023-05-08T09:18:29.115Z,20.89
2023-05-08T09:21:32.405Z,20.88
2023-05-08T09:24:57.581Z,20.57
2023-05-08T09:28:15.730Z,19.34
2023-05-08T09:31:17.725Z,20.04
2023-05-08T09:34:28.858Z,19.27
2023-05-08T09:37:31.199Z,19.95
2023-05-08T09:40:33.139Z,20.05
2023-05-08T09:43:35.351Z,21.08
2023-05-08T09:46:37.411Z,21.08
2023-05-08T09:49:40.763Z,20.55
2023-05-08T09:52:47.281Z,20.35
2023-05-08T09:55:49.577Z,21.48
2023-05-08T09:58:51.547Z,20.27
2023-05-08T10:01:54.108Z,21.67
2023-05-08T10:04:57.863Z,20.67
2023-05-08T10:08:18.070Z,22.15
2023-05-08T10:11:22.123Z,21.56
2023-05-08T10:14:25.125Z,22.02
2023-05-08T10:17:44.255Z,22.42
2023-05-08T10:20:48.905Z,21.05
2023-05-08T10:23:56.572Z,22.69
2023-05-08T10:27:12.575Z,21.42
2023-05-08T10:30:17.541Z,21.19
2023-05-08T10:33:21.608Z,21.48
2023-05-08T10:36:24.184Z,22.74
2023-05-08T10:39:27.307Z,22.39
2023-05-08T10:42:29.806Z,20.13
2023-05-08T10:45:32.702Z,18.73
2023-05-08T10:49:16.345Z,20.44
2023-05-08T10:52:28.404Z,21.21
2023-05-08T10:55:33.258Z,22.21
2023-05-08T10:58:39.475Z,21.96
2023-05-08T11:01:41.707Z,22.64
2023-05-08T11:04:44.141Z,22.48
2023-05-08T11:07:56.837Z,21.67
2023-05-08T11:10:58.761Z,20.28
2023-05-08T11:14:09.481Z,20.85
2023-05-08T11:17:11.455Z,23.14
2023-05-08T11:20:13.721Z,23.67
2023-05-08T11:23:26.999Z,24.03
2023-05-08T11:26:41.054Z,24.24
2023-05-08T11:29:45.004Z,23.59
2023-05-08T11:33:07.476Z,24.47
2023-05-08T11:36:23.133Z,23.47
2023-05-08T11:39:25.262Z,23.51
2023-05-08T11:42:27.203Z,24.47
2023-05-08T11:45:29.862Z,23.49
2023-05-08T11:48:32.931Z,23.36
2023-05-08T11:51:36.526Z,24.34
2023-05-08T11:54:38.745Z,24.28
2023-05-08T11:57:41.291Z,23.39
2023-05-08T12:00:45.422Z,22.77
2023-05-08T12:03:47.552Z,23.38
2023-05-08T12:06:58.679Z,23.31
2023-05-08T12:10:02.909Z,23.46
2023-05-08T12:13:18.805Z,23.32
2023-05-08T12:16:23.625Z,24.88
2023-05-08T12:19:25.743Z,23.64
2023-05-08T12:22:27.850Z,22.38
2023-05-08T12:25:30.252Z,21.75
2023-05-08T12:28:35.213Z,22.48
2023-05-08T12:31:38.599Z,23.31
2023-05-08T12:34:40.725Z,22.80
2023-05-08T12:37:42.947Z,23.33
2023-05-08T12:40:47.767Z,22.98
2023-05-08T12:43:50.061Z,23.95
2023-05-08T12:46:56.468Z,23.84
2023-05-08T12:49:58.489Z,24.54
2023-05-08T12:53:04.980Z,23.18
2023-05-08T12:56:07.439Z,22.55
2023-05-08T12:59:09.344Z,23.06
2023-05-08T13:02:23.993Z,24.05
2023-05-08T13:05:26.234Z,24.67
2023-05-08T13:08:33.064Z,24.92
2023-05-08T13:11:35.191Z,24.72
2023-05-08T13:14:37.171Z,25.39
2023-05-08T13:17:39.276Z,25.59
2023-05-08T13:20:41.787Z,23.28
2023-05-08T13:23:43.841Z,24.85
2023-05-08T13:26:46.225Z,23.87
2023-05-08T13:29:48.248Z,22.63
2023-05-08T13:32:51.282Z,23.05
2023-05-08T13:35:54.314Z,23.27
2023-05-08T13:38:57.519Z,23.61
2023-05-08T13:41:59.477Z,23.62
2023-05-08T13:45:01.919Z,23.55
2023-05-08T13:48:05.216Z,22.54
2023-05-08T13:51:07.226Z,21.68
2023-05-08T13:54:09.218Z,21.27
2023-05-08T13:57:11.321Z,20.84
2023-05-08T14:00:13.983Z,21.22
2023-05-08T14:03:16.000Z,21.83
2023-05-08T14:06:18.017Z,20.98
2023-05-08T14:09:19.954Z,21.71
2023-05-08T14:12:21.987Z,22.67
2023-05-08T14:15:29.215Z,21.49
2023-05-08T14:18:38.382Z,21.49
2023-05-08T14:21:40.760Z,21.29
2023-05-08T14:24:43.103Z,19.91
2023-05-08T14:27:45.100Z,19.61
2023-05-08T14:30:47.088Z,19.83
2023-05-08T14:33:49.076Z,19.84
2023-05-08T14:36:50.993Z,19.53
2023-05-08T14:39:54.257Z,19.43
2023-05-08T14:42:56.363Z,19.06
2023-05-08T14:45:58.553Z,19.20
2023-05-08T14:49:00.553Z,19.20
2023-05-08T14:52:02.629Z,19.54
2023-05-08T14:55:05.292Z,19.60
2023-05-08T14:58:07.514Z,19.38
2023-05-08T15:01:09.564Z,19.52
2023-05-08T15:04:11.862Z,19.58
2023-05-08T15:07:14.003Z,19.35
2023-05-08T15:10:16.297Z,18.99
2023-05-08T15:13:18.336Z,19.05
2023-05-08T15:16:20.337Z,19.27
2023-05-08T15:19:22.399Z,19.43
2023-05-08T15:22:25.502Z,19.03
2023-05-08T15:25:28.435Z,18.88
2023-05-08T15:28:30.592Z,19.06
2023-05-08T15:31:32.858Z,19.15
2023-05-08T15:34:34.802Z,18.91
2023-05-08T15:37:37.585Z,18.80
2023-05-08T15:40:39.918Z,18.70
2023-05-08T15:43:42.655Z,18.35
2023-05-08T15:46:44.646Z,18.32
2023-05-08T15:49:47.133Z,18.28
2023-05-08T15:52:49.416Z,18.31
2023-05-08T15:55:51.397Z,17.91
2023-05-08T15:58:53.926Z,17.96
2023-05-08T16:01:55.927Z,17.93
2023-05-08T16:04:57.895Z,17.92
2023-05-08T16:07:59.821Z,17.92
2023-05-08T16:11:02.038Z,17.80
2023-05-08T16:14:04.268Z,17.80
2023-05-08T16:17:10.262Z,17.66
2023-05-08T16:20:12.719Z,17.74
2023-05-08T16:23:15.019Z,17.69
2023-05-08T16:26:17.073Z,17.62
2023-05-08T16:29:19.023Z,17.64
2023-05-08T16:32:21.454Z,17.73
2023-05-08T16:35:24.051Z,17.66
2023-05-08T16:38:26.210Z,17.53
2023-05-08T16:41:28.240Z,17.59
2023-05-08T16:44:30.252Z,17.48
2023-05-08T16:47:32.979Z,17.50
2023-05-08T16:50:34.953Z,17.38
2023-05-08T16:53:37.282Z,17.41
2023-05-08T16:56:39.200Z,17.23
2023-05-08T16:59:41.551Z,17.26
2023-05-08T17:02:43.671Z,17.21
2023-05-08T17:05:45.692Z,17.13
2023-05-08T17:08:47.702Z,17.20
2023-05-08T17:11:49.816Z,17.07
2023-05-08T17:14:51.829Z,17.09
2023-05-08T17:17:53.854Z,17.01
2023-05-08T17:20:56.179Z,16.94
2023-05-08T17:24:02.157Z,16.84
2023-05-08T17:27:08.354Z,16.86
2023-05-08T17:30:12.246Z,16.76
2023-05-08T17:33:14.674Z,16.67
2023-05-08T17:36:16.749Z,16.62
2023-05-08T17:39:21.645Z,16.62
2023-05-08T17:42:23.688Z,16.52
2023-05-08T17:45:26.710Z,16.41
2023-05-08T17:48:28.820Z,16.30
2023-05-08T17:51:31.594Z,16.11
2023-05-08T17:54:34.283Z,15.97
2023-05-08T17:57:36.256Z,15.97
2023-05-08T18:00:38.578Z,15.95
2023-05-08T18:03:41.001Z,15.86
2023-05-08T18:06:43.707Z,15.80
2023-05-08T18:09:45.787Z,15.69
2023-05-08T18:12:48.005Z,15.66
2023-05-08T18:15:50.217Z,15.60
2023-05-08T18:18:52.398Z,15.53
2023-05-08T18:21:54.631Z,15.44
2023-05-08T18:24:57.550Z,15.43
2023-05-08T18:28:00.598Z,15.42
2023-05-08T18:31:03.336Z,15.42
2023-05-08T18:34:05.626Z,15.46
2023-05-08T18:37:07.688Z,15.21
2023-05-08T18:40:10.155Z,15.09
2023-05-08T18:43:12.373Z,15.03
2023-05-08T18:46:14.900Z,14.85
2023-05-08T18:49:17.023Z,14.80
2023-05-08T18:52:19.335Z,14.71
2023-05-08T18:55:21.469Z,14.71
2023-05-08T18:58:23.763Z,14.62
2023-05-08T19:01:26.217Z,14.59
2023-05-08T19:04:28.455Z,14.50
2023-05-08T19:07:30.416Z,14.46
2023-05-08T19:10:32.802Z,14.37
2023-05-08T19:13:34.766Z,14.34
2023-05-08T19:16:36.851Z,14.26
2023-05-08T19:19:39.296Z,14.30
2023-05-08T19:22:41.429Z,14.29
2023-05-08T19:25:43.714Z,14.23
2023-05-08T19:28:46.096Z,14.11
2023-05-08T19:31:48.526Z,14.11
2023-05-08T19:34:51.259Z,13.97
2023-05-08T19:37:53.651Z,13.97
2023-05-08T19:40:57.694Z,13.88
2023-05-08T19:44:00.417Z,13.89
2023-05-08T19:47:04.103Z,13.76
2023-05-08T19:50:07.512Z,13.72
2023-05-08T19:53:09.892Z,13.66
2023-05-08T19:56:12.383Z,13.55
2023-05-08T19:59:14.450Z,13.48
2023-05-08T20:02:16.789Z,13.51
2023-05-08T20:05:22.911Z,13.46
2023-05-08T20:08:25.652Z,13.47
2023-05-08T20:11:27.744Z,13.45
2023-05-08T20:14:29.845Z,13.28
2023-05-08T20:17:32.155Z,13.21
2023-05-08T20:20:35.187Z,13.24
2023-05-08T20:23:39.104Z,13.21
2023-05-08T20:26:41.397Z,13.12
2023-05-08T20:29:43.500Z,13.15
2023-05-08T20:32:46.038Z,13.09
2023-05-08T20:35:48.240Z,13.05
2023-05-08T20:38:50.372Z,12.99
2023-05-08T20:41:52.748Z,12.94
2023-05-08T20:44:54.704Z,12.90
2023-05-08T20:47:56.953Z,12.88
2023-05-08T20:50:58.999Z,12.65
2023-05-08T20:54:01.929Z,12.79
2023-05-08T20:57:03.865Z,12.74
2023-05-08T21:00:07.345Z,12.70
2023-05-08T21:03:09.625Z,12.66
2023-05-08T21:06:12.613Z,12.57
2023-05-08T21:09:14.690Z,12.52
2023-05-08T21:12:17.049Z,12.44
2023-05-08T21:15:19.079Z,12.39
2023-05-08T21:18:21.194Z,12.33
2023-05-08T21:21:23.201Z,12.31
2023-05-08T21:24:25.836Z,12.18
2023-05-08T21:27:27.814Z,12.18
2023-05-08T21:30:29.819Z,12.11
2023-05-08T21:33:33.876Z,12.00
2023-05-08T21:36:35.878Z,11.96
2023-05-08T21:39:38.246Z,11.96
2023-05-08T21:42:40.860Z,11.97
2023-05-08T21:45:42.799Z,11.98
2023-05-08T21:48:44.754Z,11.92
2023-05-08T21:51:46.792Z,11.82
2023-05-08T21:54:49.877Z,11.72
2023-05-08T21:57:52.145Z,11.68
2023-05-08T22:00:54.851Z,11.59
2023-05-08T22:03:57.880Z,11.55
2023-05-08T22:06:59.984Z,11.51
2023-05-08T22:10:02.028Z,11.48
2023-05-08T22:13:04.736Z,11.41
2023-05-08T22:16:07.493Z,11.34
2023-05-08T22:19:09.912Z,11.38
2023-05-08T22:22:11.949Z,11.43
2023-05-08T22:25:14.083Z,11.45
2023-05-08T22:28:16.520Z,11.52
2023-05-08T22:31:18.643Z,11.52
2023-05-08T22:34:20.766Z,11.51
2023-05-08T22:37:23.203Z,11.48
2023-05-08T22:40:25.847Z,11.43
2023-05-08T22:43:27.917Z,11.43
2023-05-08T22:46:30.626Z,11.38
2023-05-08T22:49:32.764Z,11.35
2023-05-08T22:52:39.424Z,11.30
2023-05-08T22:55:41.599Z,11.27
2023-05-08T22:58:43.729Z,11.21
2023-05-08T23:01:45.908Z,11.17
2023-05-08T23:04:48.115Z,11.14
2023-05-08T23:07:50.309Z,11.04
2023-05-08T23:10:52.188Z,10.99
2023-05-08T23:13:54.274Z,10.89
2023-05-08T23:16:56.330Z,10.87
2023-05-08T23:19:58.483Z,10.71
2023-05-08T23:23:00.499Z,10.69
2023-05-08T23:26:05.145Z,10.67
2023-05-08T23:29:07.194Z,10.59
2023-05-08T23:32:09.268Z,10.46
2023-05-08T23:35:12.157Z,10.35
2023-05-08T23:38:14.328Z,10.30
2023-05-08T23:41:16.207Z,10.12
2023-05-08T23:44:18.206Z,10.10
2023-05-08T23:47:21.117Z,10.07
2023-05-08T23:50:23.556Z,10.04
2023-05-08T23:53:25.534Z,9.99
2023-05-08T23:56:27.564Z,9.98
2023-05-08T23:59:29.509Z,9.96
